sensor_id;sensor_type;location;lat;lon;timestamp;temperature;humidity
20325;DHT22;10320;49.482;11.256;2022-08-01T05:37:03;31.60;59.10
20325;DHT22;10320;49.482;11.256;2022-08-01T05:39:29;19.50;99.90
20325;DHT22;10320;49.482;11.256;2022-08-01T05:41:56;19.40;99.90
20325;DHT22;10320;49.482;11.256;2022-08-01T05:44:21;19.50;99.90
20325;DHT22;10320;49.482;11.256;2022-08-01T05:46:47;19.60;99.90
20325;DHT22;10320;49.482;11.256;2022-08-01T05:49:13;19.70;99.90
20325;DHT22;10320;49.482;11.256;2022-08-01T05:51:39;19.90;99.90
20325;DHT22;10320;49.482;11.256;2022-08-01T05:54:04;20.20;99.90
20325;DHT22;10320;49.482;11.256;2022-08-01T05:56:30;20.30;99.90
20325;DHT22;10320;49.482;11.256;2022-08-01T05:58:56;20.40;99.90
20325;DHT22;10320;49.482;11.256;2022-08-01T06:01:21;20.50;99.90
20325;DHT22;10320;49.482;11.256;2022-08-01T06:03:47;20.50;99.90
20325;DHT22;10320;49.482;11.256;2022-08-01T06:06:12;20.70;99.90
20325;DHT22;10320;49.482;11.256;2022-08-01T06:08:40;20.80;99.90
20325;DHT22;10320;49.482;11.256;2022-08-01T06:11:05;20.90;99.90
20325;DHT22;10320;49.482;11.256;2022-08-01T06:13:31;21.00;99.90
20325;DHT22;10320;49.482;11.256;2022-08-01T06:15:57;21.10;99.90
20325;DHT22;10320;49.482;11.256;2022-08-01T06:18:23;21.20;99.90
20325;DHT22;10320;49.482;11.256;2022-08-01T06:20:48;21.20;99.90
20325;DHT22;10320;49.482;11.256;2022-08-01T06:23:14;21.30;99.90
20325;DHT22;10320;49.482;11.256;2022-08-01T06:25:42;21.40;99.90
20325;DHT22;10320;49.482;11.256;2022-08-01T06:28:08;21.50;99.90
20325;DHT22;10320;49.482;11.256;2022-08-01T06:30:33;21.70;99.90
20325;DHT22;10320;49.482;11.256;2022-08-01T06:32:59;21.90;99.90
20325;DHT22;10320;49.482;11.256;2022-08-01T06:35:26;22.00;99.90
20325;DHT22;10320;49.482;11.256;2022-08-01T06:37:52;22.20;99.90
20325;DHT22;10320;49.482;11.256;2022-08-01T06:40:18;22.40;99.90
20325;DHT22;10320;49.482;11.256;2022-08-01T06:42:44;22.50;99.90
20325;DHT22;10320;49.482;11.256;2022-08-01T06:45:12;22.60;99.90
20325;DHT22;10320;49.482;11.256;2022-08-01T06:47:39;22.70;99.90
20325;DHT22;10320;49.482;11.256;2022-08-01T06:50:06;23.00;99.90
20325;DHT22;10320;49.482;11.256;2022-08-01T06:52:32;23.10;99.90
20325;DHT22;10320;49.482;11.256;2022-08-01T06:54:58;23.20;99.90
20325;DHT22;10320;49.482;11.256;2022-08-01T06:57:25;23.30;99.90
20325;DHT22;10320;49.482;11.256;2022-08-01T06:59:50;23.30;99.90
20325;DHT22;10320;49.482;11.256;2022-08-01T07:02:16;23.30;99.90
20325;DHT22;10320;49.482;11.256;2022-08-01T07:04:42;23.30;99.90
20325;DHT22;10320;49.482;11.256;2022-08-01T07:07:07;23.30;99.90
20325;DHT22;10320;49.482;11.256;2022-08-01T07:09:33;23.20;99.90
20325;DHT22;10320;49.482;11.256;2022-08-01T07:11:59;23.10;99.90
20325;DHT22;10320;49.482;11.256;2022-08-01T07:14:25;23.10;99.90
20325;DHT22;10320;49.482;11.256;2022-08-01T07:16:51;23.10;99.90
20325;DHT22;10320;49.482;11.256;2022-08-01T07:19:17;23.10;99.90
20325;DHT22;10320;49.482;11.256;2022-08-01T07:21:43;23.10;99.90
20325;DHT22;10320;49.482;11.256;2022-08-01T07:24:11;23.20;99.90
20325;DHT22;10320;49.482;11.256;2022-08-01T07:26:46;23.30;99.90
20325;DHT22;10320;49.482;11.256;2022-08-01T07:29:12;23.20;99.90
20325;DHT22;10320;49.482;11.256;2022-08-01T07:31:38;23.20;99.90
20325;DHT22;10320;49.482;11.256;2022-08-01T07:34:04;23.30;99.90
20325;DHT22;10320;49.482;11.256;2022-08-01T07:36:30;23.40;99.90
20325;DHT22;10320;49.482;11.256;2022-08-01T07:38:55;23.30;99.90
20325;DHT22;10320;49.482;11.256;2022-08-01T07:41:21;23.40;99.90
20325;DHT22;10320;49.482;11.256;2022-08-01T07:43:47;23.50;99.90
20325;DHT22;10320;49.482;11.256;2022-08-01T07:46:16;23.50;99.90
20325;DHT22;10320;49.482;11.256;2022-08-01T07:48:43;23.50;99.90
20325;DHT22;10320;49.482;11.256;2022-08-01T07:51:09;23.60;99.90
20325;DHT22;10320;49.482;11.256;2022-08-01T07:53:36;23.80;99.90
20325;DHT22;10320;49.482;11.256;2022-08-01T07:56:02;24.00;99.90
20325;DHT22;10320;49.482;11.256;2022-08-01T07:58:30;24.10;99.90
20325;DHT22;10320;49.482;11.256;2022-08-01T08:00:55;23.90;99.90
20325;DHT22;10320;49.482;11.256;2022-08-01T08:03:21;23.70;99.90
20325;DHT22;10320;49.482;11.256;2022-08-01T08:05:47;23.80;99.90
20325;DHT22;10320;49.482;11.256;2022-08-01T08:08:12;23.90;99.90
20325;DHT22;10320;49.482;11.256;2022-08-01T08:10:39;23.90;99.90
20325;DHT22;10320;49.482;11.256;2022-08-01T08:13:05;24.00;99.90
20325;DHT22;10320;49.482;11.256;2022-08-01T08:15:30;23.70;99.90
20325;DHT22;10320;49.482;11.256;2022-08-01T08:17:56;23.60;99.90
20325;DHT22;10320;49.482;11.256;2022-08-01T08:20:22;23.70;99.90
20325;DHT22;10320;49.482;11.256;2022-08-01T08:22:51;23.80;99.90
20325;DHT22;10320;49.482;11.256;2022-08-01T08:25:17;24.20;99.90
20325;DHT22;10320;49.482;11.256;2022-08-01T08:27:45;24.20;99.90
20325;DHT22;10320;49.482;11.256;2022-08-01T08:30:12;24.30;99.90
20325;DHT22;10320;49.482;11.256;2022-08-01T08:32:38;24.20;99.90
20325;DHT22;10320;49.482;11.256;2022-08-01T08:35:05;24.00;99.90
20325;DHT22;10320;49.482;11.256;2022-08-01T08:37:31;23.70;99.90
20325;DHT22;10320;49.482;11.256;2022-08-01T08:39:57;23.40;99.90
20325;DHT22;10320;49.482;11.256;2022-08-01T08:42:22;23.30;99.90
20325;DHT22;10320;49.482;11.256;2022-08-01T08:44:48;23.40;99.90
20325;DHT22;10320;49.482;11.256;2022-08-01T08:47:15;23.70;99.90
20325;DHT22;10320;49.482;11.256;2022-08-01T08:49:43;23.80;99.90
20325;DHT22;10320;49.482;11.256;2022-08-01T08:52:09;24.00;99.90
20325;DHT22;10320;49.482;11.256;2022-08-01T08:54:37;24.10;99.90
20325;DHT22;10320;49.482;11.256;2022-08-01T08:57:04;24.20;99.90
20325;DHT22;10320;49.482;11.256;2022-08-01T08:59:31;24.40;99.90
20325;DHT22;10320;49.482;11.256;2022-08-01T09:01:58;24.60;99.90
20325;DHT22;10320;49.482;11.256;2022-08-01T09:04:24;24.80;99.90
20325;DHT22;10320;49.482;11.256;2022-08-01T09:06:51;24.90;99.90
20325;DHT22;10320;49.482;11.256;2022-08-01T09:09:17;24.90;99.90
20325;DHT22;10320;49.482;11.256;2022-08-01T09:11:43;24.80;99.90
20325;DHT22;10320;49.482;11.256;2022-08-01T09:16:40;25.00;99.90
20325;DHT22;10320;49.482;11.256;2022-08-01T09:19:18;25.30;99.90
20325;DHT22;10320;49.482;11.256;2022-08-01T09:22:05;25.60;99.90
20325;DHT22;10320;49.482;11.256;2022-08-01T09:24:32;25.60;99.90
20325;DHT22;10320;49.482;11.256;2022-08-01T09:26:58;25.80;99.90
20325;DHT22;10320;49.482;11.256;2022-08-01T09:29:28;25.70;99.90
20325;DHT22;10320;49.482;11.256;2022-08-01T09:31:55;25.40;99.90
20325;DHT22;10320;49.482;11.256;2022-08-01T09:34:29;25.50;99.90
20325;DHT22;10320;49.482;11.256;2022-08-01T09:36:58;25.50;99.90
20325;DHT22;10320;49.482;11.256;2022-08-01T09:39:26;25.50;99.90
20325;DHT22;10320;49.482;11.256;2022-08-01T09:41:53;25.50;99.90
20325;DHT22;10320;49.482;11.256;2022-08-01T09:44:19;25.50;99.90
20325;DHT22;10320;49.482;11.256;2022-08-01T09:47:01;25.60;99.90
20325;DHT22;10320;49.482;11.256;2022-08-01T09:49:32;25.60;99.90
20325;DHT22;10320;49.482;11.256;2022-08-01T09:52:09;25.70;99.90
20325;DHT22;10320;49.482;11.256;2022-08-01T09:54:35;25.90;99.90
20325;DHT22;10320;49.482;11.256;2022-08-01T09:57:27;25.70;99.90
20325;DHT22;10320;49.482;11.256;2022-08-01T09:59:57;25.40;99.90
20325;DHT22;10320;49.482;11.256;2022-08-01T10:04:53;25.50;99.90
20325;DHT22;10320;49.482;11.256;2022-08-01T10:07:21;25.80;99.90
20325;DHT22;10320;49.482;11.256;2022-08-01T10:09:48;26.10;99.90
20325;DHT22;10320;49.482;11.256;2022-08-01T10:12:19;26.50;99.90
20325;DHT22;10320;49.482;11.256;2022-08-01T10:14:48;26.90;99.90
20325;DHT22;10320;49.482;11.256;2022-08-01T10:17:16;27.40;99.90
20325;DHT22;10320;49.482;11.256;2022-08-01T10:19:43;27.70;99.90
20325;DHT22;10320;49.482;11.256;2022-08-01T10:22:11;27.80;99.90
20325;DHT22;10320;49.482;11.256;2022-08-01T10:24:43;27.70;99.90
20325;DHT22;10320;49.482;11.256;2022-08-01T10:27:10;27.50;99.90
20325;DHT22;10320;49.482;11.256;2022-08-01T10:29:46;27.30;99.90
20325;DHT22;10320;49.482;11.256;2022-08-01T10:32:12;27.20;99.90
20325;DHT22;10320;49.482;11.256;2022-08-01T10:34:38;27.10;99.90
20325;DHT22;10320;49.482;11.256;2022-08-01T10:37:05;26.80;99.90
20325;DHT22;10320;49.482;11.256;2022-08-01T10:39:32;26.40;99.90
20325;DHT22;10320;49.482;11.256;2022-08-01T10:41:58;26.00;99.90
20325;DHT22;10320;49.482;11.256;2022-08-01T10:44:25;25.90;99.90
20325;DHT22;10320;49.482;11.256;2022-08-01T10:47:01;26.00;99.90
20325;DHT22;10320;49.482;11.256;2022-08-01T10:49:30;26.10;99.90
20325;DHT22;10320;49.482;11.256;2022-08-01T10:51:57;26.20;99.90
20325;DHT22;10320;49.482;11.256;2022-08-01T10:54:26;26.10;99.90
20325;DHT22;10320;49.482;11.256;2022-08-01T10:56:52;26.20;99.90
20325;DHT22;10320;49.482;11.256;2022-08-01T10:59:26;26.10;99.90
20325;DHT22;10320;49.482;11.256;2022-08-01T11:01:57;25.90;99.90
20325;DHT22;10320;49.482;11.256;2022-08-01T11:07:18;25.90;99.90
20325;DHT22;10320;49.482;11.256;2022-08-01T11:09:47;26.00;99.90
20325;DHT22;10320;49.482;11.256;2022-08-01T11:12:15;26.00;99.90
20325;DHT22;10320;49.482;11.256;2022-08-01T11:17:44;25.90;99.90
20325;DHT22;10320;49.482;11.256;2022-08-01T11:20:23;25.90;99.90
20325;DHT22;10320;49.482;11.256;2022-08-01T11:26:05;26.60;99.90
20325;DHT22;10320;49.482;11.256;2022-08-01T11:41:24;26.80;99.90
20325;DHT22;10320;49.482;11.256;2022-08-01T11:49:30;27.40;99.90
20325;DHT22;10320;49.482;11.256;2022-08-01T11:52:06;27.30;99.90
20325;DHT22;10320;49.482;11.256;2022-08-01T11:54:37;27.10;99.90
20325;DHT22;10320;49.482;11.256;2022-08-01T11:57:10;26.80;99.90
20325;DHT22;10320;49.482;11.256;2022-08-01T11:59:42;26.60;99.90
20325;DHT22;10320;49.482;11.256;2022-08-01T12:07:19;26.20;99.90
20325;DHT22;10320;49.482;11.256;2022-08-01T12:09:45;26.30;99.90
20325;DHT22;10320;49.482;11.256;2022-08-01T12:12:14;26.60;99.90
20325;DHT22;10320;49.482;11.256;2022-08-01T12:14:42;26.60;99.90
20325;DHT22;10320;49.482;11.256;2022-08-01T12:17:08;26.70;99.90
20325;DHT22;10320;49.482;11.256;2022-08-01T12:19:34;27.00;99.90
20325;DHT22;10320;49.482;11.256;2022-08-01T12:22:14;27.10;99.90
20325;DHT22;10320;49.482;11.256;2022-08-01T12:24:42;27.00;99.90
20325;DHT22;10320;49.482;11.256;2022-08-01T12:27:09;26.80;99.90
20325;DHT22;10320;49.482;11.256;2022-08-01T12:29:38;26.70;99.90
20325;DHT22;10320;49.482;11.256;2022-08-01T12:32:20;26.70;99.90
20325;DHT22;10320;49.482;11.256;2022-08-01T12:34:46;26.80;99.90
20325;DHT22;10320;49.482;11.256;2022-08-01T12:37:11;26.90;99.90
20325;DHT22;10320;49.482;11.256;2022-08-01T12:39:38;27.00;99.90
20325;DHT22;10320;49.482;11.256;2022-08-01T12:42:07;27.20;99.90
20325;DHT22;10320;49.482;11.256;2022-08-01T12:44:36;27.30;99.90
20325;DHT22;10320;49.482;11.256;2022-08-01T12:47:05;27.30;99.90
20325;DHT22;10320;49.482;11.256;2022-08-01T12:49:32;27.40;99.90
20325;DHT22;10320;49.482;11.256;2022-08-01T12:51:58;27.30;99.90
20325;DHT22;10320;49.482;11.256;2022-08-01T12:54:24;27.30;99.90
20325;DHT22;10320;49.482;11.256;2022-08-01T12:56:51;27.20;99.90
20325;DHT22;10320;49.482;11.256;2022-08-01T12:59:26;27.30;99.90
20325;DHT22;10320;49.482;11.256;2022-08-01T13:01:56;27.20;99.90
20325;DHT22;10320;49.482;11.256;2022-08-01T13:04:22;27.20;99.90
20325;DHT22;10320;49.482;11.256;2022-08-01T13:06:52;27.20;99.90
20325;DHT22;10320;49.482;11.256;2022-08-01T13:09:18;27.50;99.90
20325;DHT22;10320;49.482;11.256;2022-08-01T13:11:44;27.80;99.90
20325;DHT22;10320;49.482;11.256;2022-08-01T13:14:29;27.90;99.90
20325;DHT22;10320;49.482;11.256;2022-08-01T13:16:55;28.00;99.90
20325;DHT22;10320;49.482;11.256;2022-08-01T13:19:20;28.50;99.90
20325;DHT22;10320;49.482;11.256;2022-08-01T13:21:56;28.90;99.90
20325;DHT22;10320;49.482;11.256;2022-08-01T13:24:29;29.20;99.90
20325;DHT22;10320;49.482;11.256;2022-08-01T13:27:00;29.20;99.90
20325;DHT22;10320;49.482;11.256;2022-08-01T13:29:38;29.00;99.90
20325;DHT22;10320;49.482;11.256;2022-08-01T13:32:23;28.70;99.90
20325;DHT22;10320;49.482;11.256;2022-08-01T13:34:49;28.40;99.90
20325;DHT22;10320;49.482;11.256;2022-08-01T13:37:15;28.20;99.90
20325;DHT22;10320;49.482;11.256;2022-08-01T13:39:44;28.00;99.90
20325;DHT22;10320;49.482;11.256;2022-08-01T13:42:18;27.60;99.90
20325;DHT22;10320;49.482;11.256;2022-08-01T13:44:44;27.80;99.90
20325;DHT22;10320;49.482;11.256;2022-08-01T13:47:13;28.80;99.90
20325;DHT22;10320;49.482;11.256;2022-08-01T13:49:39;30.70;99.90
